Terminal Aerodrome Forecast
Issued by NWS

Home | Current Version | Previous Version | Text Only | Print | Product List | Glossary On
Versions: 1 2 3 4 5 6 7 8 9 10 11 12 13 14 15 16 17 18 19
000
FTUS42 KFFC 071125
TAFRYY
TAF
KRYY 071125Z 0712/0812 31004KT P6SM FEW015
      TEMPO 0715/0717 SCT025
     FM071700 28006KT P6SM SCT035
     FM080900 31008KT P6SM SCT050 BKN100=

USA.gov is the U.S. government's official web portal to all federal, state and local government web resources and services.